createdAt,value
2023-01-20T00:00:23.070Z,31.20
2023-01-20T00:02:49.490Z,33.05
2023-01-20T00:05:16.256Z,28.27
2023-01-20T00:07:42.632Z,29.38
2023-01-20T00:10:09.634Z,36.42
2023-01-20T00:12:36.745Z,31.63
2023-01-20T00:15:05.489Z,27.25
2023-01-20T00:17:31.824Z,35.80
2023-01-20T00:19:58.200Z,31.30
2023-01-20T00:22:24.526Z,28.15
2023-01-20T00:24:50.972Z,30.67
2023-01-20T00:27:20.270Z,32.28
2023-01-20T00:29:46.883Z,25.25
2023-01-20T00:32:13.352Z,27.45
2023-01-20T00:34:39.780Z,27.20
2023-01-20T00:37:09.159Z,25.63
2023-01-20T00:39:35.503Z,29.23
2023-01-20T00:42:01.868Z,29.35
2023-01-20T00:44:28.272Z,31.20
2023-01-20T00:46:54.759Z,31.80
2023-01-20T00:49:23.406Z,31.45
2023-01-20T00:51:49.824Z,30.63
2023-01-20T00:54:16.195Z,28.55
2023-01-20T00:56:42.565Z,34.20
2023-01-20T00:59:12.949Z,26.58
2023-01-20T01:01:39.439Z,29.90
2023-01-20T01:04:06.085Z,27.38
2023-01-20T01:06:32.452Z,27.20
2023-01-20T01:08:59.060Z,28.15
2023-01-20T01:11:25.452Z,29.65
2023-01-20T01:13:54.025Z,30.17
2023-01-20T01:16:20.482Z,27.17
2023-01-20T01:18:46.908Z,27.50
2023-01-20T01:21:15.349Z,33.65
2023-01-20T01:23:42.253Z,26.00
2023-01-20T01:26:10.037Z,32.75
2023-01-20T01:28:36.620Z,26.13
2023-01-20T01:31:07.407Z,29.73
2023-01-20T01:33:33.978Z,28.38
2023-01-20T01:36:04.203Z,75.25
2023-01-20T01:38:33.618Z,30.63
2023-01-20T01:41:00.401Z,29.65
2023-01-20T01:43:29.358Z,29.10
2023-01-20T01:45:56.169Z,41.92
2023-01-20T01:48:26.264Z,33.33
2023-01-20T01:50:56.115Z,28.77
2023-01-20T01:53:22.802Z,29.05
2023-01-20T01:55:52.614Z,49.42
2023-01-20T01:58:22.588Z,52.08
2023-01-20T02:00:48.972Z,27.02
2023-01-20T02:03:15.508Z,55.65
2023-01-20T02:05:42.705Z,24.10
2023-01-20T02:08:09.231Z,32.95
2023-01-20T02:10:35.604Z,23.88
2023-01-20T02:13:02.343Z,25.75
2023-01-20T02:15:42.483Z,26.48
2023-01-20T02:18:17.254Z,25.17
2023-01-20T02:20:57.501Z,24.38
2023-01-20T02:23:48.580Z,30.15
2023-01-20T02:26:28.761Z,24.10
2023-01-20T02:29:23.750Z,26.13
2023-01-20T02:32:11.792Z,23.92
2023-01-20T02:34:47.058Z,23.35
2023-01-20T02:37:25.721Z,24.70
2023-01-20T02:40:28.046Z,25.73
2023-01-20T02:43:21.076Z,21.73
2023-01-20T02:46:01.872Z,25.08
2023-01-20T02:48:33.824Z,23.15
2023-01-20T02:51:09.306Z,22.33
2023-01-20T02:53:44.845Z,21.00
2023-01-20T02:56:12.519Z,24.42
2023-01-20T02:58:50.922Z,25.27
2023-01-20T03:01:24.104Z,24.20
2023-01-20T03:03:52.970Z,25.30
2023-01-20T03:06:22.738Z,24.13
2023-01-20T03:08:50.983Z,24.75
2023-01-20T03:11:17.714Z,22.52
2023-01-20T03:14:06.419Z,23.60
2023-01-20T03:16:33.059Z,25.30
2023-01-20T03:18:59.454Z,23.60
2023-01-20T03:21:26.997Z,22.42
2023-01-20T03:23:56.998Z,20.45
2023-01-20T03:26:23.831Z,20.92
2023-01-20T03:28:50.491Z,18.58
2023-01-20T03:31:22.892Z,24.92
2023-01-20T03:33:51.611Z,23.98
2023-01-20T03:36:18.845Z,23.33
2023-01-20T03:38:45.552Z,22.17
2023-01-20T03:41:49.102Z,22.77
2023-01-20T03:44:37.273Z,28.75
2023-01-20T03:47:27.846Z,23.20
2023-01-20T03:50:09.345Z,28.33
2023-01-20T03:52:54.052Z,25.55
2023-01-20T03:55:30.347Z,27.33
2023-01-20T03:58:03.400Z,26.25
2023-01-20T04:00:31.693Z,28.65
2023-01-20T04:02:58.771Z,24.55
2023-01-20T04:05:25.805Z,28.30
2023-01-20T04:07:56.474Z,28.83
2023-01-20T04:10:23.400Z,26.98
2023-01-20T04:13:04.799Z,24.00
2023-01-20T04:15:36.503Z,26.02
2023-01-20T04:18:17.765Z,27.92
2023-01-20T04:20:46.318Z,28.67
2023-01-20T04:23:20.864Z,26.08
2023-01-20T04:25:47.225Z,26.08
2023-01-20T04:28:13.596Z,31.20
2023-01-20T04:30:39.991Z,26.27
2023-01-20T04:33:06.327Z,26.85
2023-01-20T04:35:32.750Z,30.10
2023-01-20T04:37:59.100Z,28.85
2023-01-20T04:40:25.552Z,26.40
2023-01-20T04:42:52.049Z,30.70
2023-01-20T04:45:18.606Z,27.88
2023-01-20T04:47:45.001Z,27.98
2023-01-20T04:50:12.341Z,27.80
2023-01-20T04:52:38.734Z,26.88
2023-01-20T04:55:05.494Z,26.92
2023-01-20T04:57:31.910Z,25.45
2023-01-20T04:59:58.289Z,26.42
2023-01-20T05:02:24.753Z,26.42
2023-01-20T05:04:51.175Z,27.50
2023-01-20T05:07:17.565Z,26.95
2023-01-20T05:09:44.004Z,28.88
2023-01-20T05:12:10.385Z,30.02
2023-01-20T05:14:36.720Z,32.40
2023-01-20T05:17:03.060Z,25.67
2023-01-20T05:19:29.456Z,27.63
2023-01-20T05:21:55.824Z,26.90
2023-01-20T05:24:22.216Z,27.92
2023-01-20T05:26:48.535Z,26.90
2023-01-20T05:29:14.935Z,25.73
2023-01-20T05:31:43.283Z,26.35
2023-01-20T05:34:10.824Z,23.13
2023-01-20T05:36:37.244Z,24.55
2023-01-20T05:39:03.752Z,26.75
2023-01-20T05:41:30.196Z,27.80
2023-01-20T05:43:56.696Z,26.85
2023-01-20T05:46:23.082Z,27.60
2023-01-20T05:48:49.491Z,28.08
2023-01-20T05:51:15.961Z,23.15
2023-01-20T05:53:42.348Z,23.67
2023-01-20T05:56:08.710Z,24.92
2023-01-20T05:58:35.230Z,24.90
2023-01-20T06:01:10.665Z,27.58
2023-01-20T06:03:37.824Z,24.80
2023-01-20T06:06:06.340Z,24.98
2023-01-20T06:08:32.898Z,26.95
2023-01-20T06:10:59.296Z,26.17
2023-01-20T06:13:26.359Z,25.23
2023-01-20T06:15:53.620Z,27.40
2023-01-20T06:18:23.324Z,24.55
2023-01-20T06:20:50.063Z,28.13
2023-01-20T06:23:16.571Z,25.85
2023-01-20T06:25:43.835Z,26.17
2023-01-20T06:28:10.190Z,25.85
2023-01-20T06:30:36.822Z,28.00
2023-01-20T06:33:04.154Z,29.30
2023-01-20T06:35:30.540Z,28.02
2023-01-20T06:37:59.475Z,28.48
2023-01-20T06:40:25.837Z,27.65
2023-01-20T06:42:52.221Z,31.40
2023-01-20T06:45:18.705Z,30.65
2023-01-20T06:47:49.055Z,31.80
2023-01-20T06:50:16.217Z,33.72
2023-01-20T06:52:42.717Z,35.05
2023-01-20T06:55:09.252Z,34.33
2023-01-20T06:57:35.626Z,30.20
2023-01-20T07:00:02.096Z,30.95
2023-01-20T07:02:28.558Z,34.00
2023-01-20T07:04:55.035Z,31.40
2023-01-20T07:07:21.440Z,49.30
2023-01-20T07:09:47.967Z,66.15
2023-01-20T07:12:14.435Z,44.00
2023-01-20T07:14:40.750Z,31.55
2023-01-20T07:17:11.109Z,27.73
2023-01-20T07:19:37.586Z,24.98
2023-01-20T07:22:03.924Z,24.98
2023-01-20T07:24:30.295Z,23.30
2023-01-20T07:26:56.608Z,23.75
2023-01-20T07:29:23.089Z,25.92
2023-01-20T07:31:49.472Z,25.50
2023-01-20T07:34:15.901Z,26.40
2023-01-20T07:36:42.282Z,25.45
2023-01-20T07:39:10.629Z,25.50
2023-01-20T07:41:37.114Z,23.63
2023-01-20T07:44:03.481Z,23.65
2023-01-20T07:46:29.954Z,24.90
2023-01-20T07:48:56.554Z,26.65
2023-01-20T07:51:22.998Z,29.30
2023-01-20T07:53:51.450Z,26.23
2023-01-20T07:56:23.352Z,24.65
2023-01-20T07:58:51.045Z,25.13
2023-01-20T08:01:27.339Z,29.27
2023-01-20T08:03:53.989Z,28.00
2023-01-20T08:06:23.127Z,28.80
2023-01-20T08:08:49.918Z,25.30
2023-01-20T08:11:17.649Z,24.27
2023-01-20T08:13:44.082Z,26.45
2023-01-20T08:16:12.563Z,26.48
2023-01-20T08:18:39.665Z,30.17
2023-01-20T08:21:08.149Z,27.42
2023-01-20T08:23:35.652Z,28.02
2023-01-20T08:26:06.092Z,45.17
2023-01-20T08:28:34.949Z,59.45
2023-01-20T08:31:09.799Z,50.70
2023-01-20T08:33:36.600Z,43.80
2023-01-20T08:36:08.101Z,36.63
2023-01-20T08:38:35.430Z,30.30
2023-01-20T08:41:02.153Z,28.60
2023-01-20T08:43:28.882Z,28.25
2023-01-20T08:46:03.900Z,22.15
2023-01-20T08:48:30.306Z,24.45
2023-01-20T08:50:56.943Z,22.73
2023-01-20T08:53:23.281Z,23.38
2023-01-20T08:55:56.990Z,22.92
2023-01-20T08:58:25.397Z,21.02
2023-01-20T09:00:52.756Z,24.23
2023-01-20T09:03:19.603Z,23.05
2023-01-20T09:05:46.285Z,22.38
2023-01-20T09:08:13.176Z,22.20
2023-01-20T09:10:39.503Z,28.05
2023-01-20T09:13:08.650Z,28.10
2023-01-20T09:15:35.058Z,27.20
2023-01-20T09:18:01.449Z,28.10
2023-01-20T09:20:28.909Z,30.92
2023-01-20T09:22:55.246Z,27.98
2023-01-20T09:25:21.951Z,35.33
2023-01-20T09:27:48.280Z,31.20
2023-01-20T09:30:14.812Z,35.45
2023-01-20T09:32:41.288Z,35.97
2023-01-20T09:35:07.875Z,32.63
2023-01-20T09:38:00.245Z,32.72
2023-01-20T09:40:54.169Z,35.88
2023-01-20T09:43:55.334Z,36.85
2023-01-20T09:46:38.438Z,34.10
2023-01-20T09:49:33.907Z,67.00
2023-01-20T09:52:47.725Z,52.08
2023-01-20T09:55:53.297Z,36.50
2023-01-20T09:58:33.439Z,39.45
2023-01-20T10:01:05.945Z,42.47
2023-01-20T10:03:59.539Z,41.97
2023-01-20T10:06:33.474Z,42.03
2023-01-20T10:11:40.779Z,39.35
2023-01-20T10:14:34.428Z,43.08
2023-01-20T10:17:18.009Z,48.63
2023-01-20T10:20:01.613Z,48.28
2023-01-20T10:22:48.713Z,46.40
2023-01-20T10:25:37.983Z,49.30
2023-01-20T10:28:10.780Z,49.30
2023-01-20T10:30:38.288Z,56.20
2023-01-20T10:33:12.856Z,60.28
2023-01-20T10:35:42.454Z,54.60
2023-01-20T10:38:19.206Z,56.60
2023-01-20T10:40:51.690Z,62.55
2023-01-20T10:43:19.088Z,53.72
2023-01-20T10:45:54.132Z,60.63
2023-01-20T10:49:16.550Z,61.00
2023-01-20T10:51:52.825Z,57.60
2023-01-20T10:54:29.190Z,60.05
2023-01-20T10:56:57.136Z,59.67
2023-01-20T10:59:36.479Z,64.53
2023-01-20T11:02:19.823Z,64.30
2023-01-20T11:04:50.888Z,66.82
2023-01-20T11:07:17.680Z,68.72
2023-01-20T11:09:44.412Z,63.67
2023-01-20T11:12:21.919Z,59.22
2023-01-20T11:14:48.733Z,71.18
2023-01-20T11:17:18.559Z,66.82
2023-01-20T11:19:53.164Z,66.95
2023-01-20T11:22:32.080Z,65.05
2023-01-20T11:24:59.936Z,66.53
2023-01-20T11:27:48.076Z,59.10
2023-01-20T11:30:29.020Z,55.00
2023-01-20T11:33:28.657Z,54.05
2023-01-20T11:36:09.480Z,61.47
2023-01-20T11:38:47.563Z,72.55
2023-01-20T11:41:21.868Z,51.08
2023-01-20T11:43:49.484Z,49.38
2023-01-20T11:46:19.377Z,54.95
2023-01-20T11:48:45.834Z,47.22
2023-01-20T11:51:27.503Z,49.67
2023-01-20T11:54:14.619Z,40.28
2023-01-20T11:56:42.978Z,40.28
2023-01-20T11:59:19.519Z,38.45
2023-01-20T12:01:57.303Z,36.22
2023-01-20T12:04:44.836Z,38.70
2023-01-20T12:07:24.645Z,33.05
2023-01-20T12:09:59.213Z,34.95
2023-01-20T12:13:04.127Z,34.95
2023-01-20T12:15:35.214Z,27.80
2023-01-20T12:18:38.660Z,29.98
2023-01-20T12:21:09.413Z,31.05
2023-01-20T12:23:45.561Z,32.70
2023-01-20T12:26:16.659Z,27.17
2023-01-20T12:29:18.441Z,28.30
2023-01-20T12:31:48.884Z,27.95
2023-01-20T12:34:17.823Z,28.15
2023-01-20T12:37:04.651Z,30.50
2023-01-20T12:40:07.888Z,28.23
2023-01-20T12:42:43.682Z,28.83
2023-01-20T12:45:19.123Z,29.85
2023-01-20T12:48:12.845Z,28.30
2023-01-20T12:50:54.517Z,30.80
2023-01-20T12:53:46.499Z,23.63
2023-01-20T12:56:21.698Z,26.67
2023-01-20T12:58:56.434Z,27.13
2023-01-20T13:01:32.691Z,26.20
2023-01-20T13:04:22.699Z,24.70
2023-01-20T13:07:18.378Z,32.03
2023-01-20T13:10:14.811Z,23.73
2023-01-20T13:12:52.132Z,24.40
2023-01-20T13:15:27.181Z,25.30
2023-01-20T13:18:26.442Z,24.05
2023-01-20T13:20:53.804Z,27.42
2023-01-20T13:23:32.856Z,25.52
2023-01-20T13:26:00.404Z,39.85
2023-01-20T13:28:28.825Z,31.65
2023-01-20T13:30:57.391Z,23.90
2023-01-20T13:33:37.421Z,26.52
2023-01-20T13:36:17.285Z,23.88
2023-01-20T13:38:44.207Z,25.25
2023-01-20T13:41:11.496Z,23.15
2023-01-20T13:43:46.714Z,23.33
2023-01-20T13:46:15.019Z,21.65
2023-01-20T13:49:23.253Z,25.35
2023-01-20T13:51:50.253Z,22.10
2023-01-20T13:54:36.635Z,20.77
2023-01-20T13:57:26.005Z,22.27
2023-01-20T13:59:52.355Z,21.80
2023-01-20T14:02:19.959Z,24.23
2023-01-20T14:04:46.504Z,22.95
2023-01-20T14:07:23.772Z,24.17
2023-01-20T14:09:54.626Z,21.23
2023-01-20T14:12:21.007Z,19.58
2023-01-20T14:14:52.099Z,21.30
2023-01-20T14:17:23.216Z,21.05
2023-01-20T14:19:53.168Z,19.85
2023-01-20T14:22:30.277Z,17.02
2023-01-20T14:24:57.412Z,20.77
2023-01-20T14:27:23.688Z,21.13
2023-01-20T14:29:52.229Z,22.05
2023-01-20T14:32:26.907Z,21.13
2023-01-20T14:34:53.989Z,21.38
2023-01-20T14:37:32.411Z,19.92
2023-01-20T14:40:07.517Z,20.55
2023-01-20T14:42:34.184Z,22.83
2023-01-20T14:45:00.725Z,19.10
2023-01-20T14:47:27.245Z,20.27
2023-01-20T14:49:54.019Z,22.10
2023-01-20T14:52:30.212Z,22.27
2023-01-20T14:54:57.193Z,21.98
2023-01-20T14:57:33.351Z,20.33
2023-01-20T15:00:16.918Z,24.48
2023-01-20T15:02:58.015Z,24.88
2023-01-20T15:05:36.313Z,23.88
2023-01-20T15:08:16.409Z,27.08
2023-01-20T15:10:42.845Z,22.73
2023-01-20T15:13:25.728Z,23.08
2023-01-20T15:15:52.233Z,27.20
2023-01-20T15:18:23.041Z,25.83
2023-01-20T15:20:52.774Z,24.80
2023-01-20T15:23:31.950Z,23.85
2023-01-20T15:26:28.522Z,22.10
2023-01-20T15:28:55.636Z,25.65
2023-01-20T15:31:22.217Z,21.67
2023-01-20T15:33:48.764Z,24.05
2023-01-20T15:36:28.541Z,28.08
2023-01-20T15:38:55.264Z,25.58
2023-01-20T15:41:21.948Z,27.58
2023-01-20T15:43:49.444Z,29.25
2023-01-20T15:46:17.302Z,32.67
2023-01-20T15:48:45.037Z,30.20
2023-01-20T15:51:16.869Z,35.10
2023-01-20T15:53:43.883Z,33.65
2023-01-20T15:56:16.589Z,30.63
2023-01-20T15:58:42.938Z,33.42
2023-01-20T16:01:12.371Z,36.70
2023-01-20T16:03:38.897Z,32.72
2023-01-20T16:06:11.267Z,34.70
2023-01-20T16:08:37.922Z,33.40
2023-01-20T16:11:04.890Z,36.58
2023-01-20T16:13:31.370Z,34.78
2023-01-20T16:15:57.812Z,35.85
2023-01-20T16:18:24.645Z,33.65
2023-01-20T16:20:51.004Z,38.13
2023-01-20T16:23:17.368Z,39.70
2023-01-20T16:25:44.038Z,34.80
2023-01-20T16:28:15.419Z,34.85
2023-01-20T16:30:42.326Z,37.88
2023-01-20T16:33:19.739Z,40.92
2023-01-20T16:35:46.158Z,34.00
2023-01-20T16:38:15.502Z,36.47
2023-01-20T16:40:45.963Z,36.85
2023-01-20T16:43:12.695Z,33.67
2023-01-20T16:45:39.175Z,33.97
2023-01-20T16:48:06.979Z,41.63
2023-01-20T16:50:33.376Z,38.75
2023-01-20T16:52:59.765Z,42.30
2023-01-20T16:55:26.219Z,39.88
2023-01-20T16:57:52.647Z,37.17
2023-01-20T17:00:19.821Z,39.40
2023-01-20T17:02:51.160Z,35.60
2023-01-20T17:05:22.246Z,39.45
2023-01-20T17:07:49.866Z,44.00
2023-01-20T17:10:17.444Z,38.00
2023-01-20T17:12:45.563Z,38.22
2023-01-20T17:15:13.113Z,37.50
2023-01-20T17:17:39.580Z,39.88
2023-01-20T17:20:12.629Z,70.28
2023-01-20T17:22:39.612Z,56.23
2023-01-20T17:25:08.198Z,43.65
2023-01-20T17:27:35.471Z,40.67
2023-01-20T17:30:01.884Z,38.67
2023-01-20T17:32:28.320Z,39.75
2023-01-20T17:34:54.680Z,43.13
2023-01-20T17:37:21.083Z,43.33
2023-01-20T17:39:47.720Z,51.00
2023-01-20T17:42:16.715Z,38.47
2023-01-20T17:44:43.909Z,41.15
2023-01-20T17:47:11.499Z,41.00
2023-01-20T17:49:37.886Z,37.90
2023-01-20T17:52:04.583Z,38.83
2023-01-20T17:54:31.153Z,39.08
2023-01-20T17:56:57.599Z,41.22
2023-01-20T17:59:26.056Z,43.35
2023-01-20T18:01:52.555Z,38.63
2023-01-20T18:04:19.548Z,38.78
2023-01-20T18:06:45.996Z,38.90
2023-01-20T18:09:14.115Z,34.17
2023-01-20T18:11:40.840Z,32.65
2023-01-20T18:14:07.490Z,33.28
2023-01-20T18:16:36.633Z,30.02
2023-01-20T18:19:03.699Z,28.65
2023-01-20T18:21:32.505Z,25.83
2023-01-20T18:23:59.589Z,22.70
2023-01-20T18:26:29.506Z,20.65
2023-01-20T18:28:57.279Z,20.70
2023-01-20T18:31:25.008Z,21.80
2023-01-20T18:33:56.454Z,21.63
2023-01-20T18:36:28.516Z,19.17
2023-01-20T18:39:00.435Z,21.55
2023-01-20T18:41:29.991Z,23.55
2023-01-20T18:43:57.305Z,23.00
2023-01-20T18:46:24.896Z,22.17
2023-01-20T18:48:55.258Z,20.48
2023-01-20T18:51:24.121Z,23.27
2023-01-20T18:53:55.894Z,20.00
2023-01-20T18:56:22.666Z,17.55
2023-01-20T18:58:49.666Z,17.83
2023-01-20T19:01:18.570Z,17.92
2023-01-20T19:03:46.147Z,16.13
2023-01-20T19:06:17.434Z,17.45
2023-01-20T19:08:44.991Z,17.40
2023-01-20T19:11:14.094Z,18.38
2023-01-20T19:13:41.255Z,18.23
2023-01-20T19:16:10.317Z,17.92
2023-01-20T19:18:37.193Z,18.52
2023-01-20T19:21:05.414Z,17.08
2023-01-20T19:23:31.837Z,17.67
2023-01-20T19:26:12.096Z,18.05
2023-01-20T19:28:38.664Z,18.27
2023-01-20T19:31:08.734Z,16.50
2023-01-20T19:33:35.724Z,19.05
2023-01-20T19:36:04.836Z,18.58
2023-01-20T19:38:31.210Z,20.52
2023-01-20T19:41:05.732Z,22.95
2023-01-20T19:43:32.667Z,22.83
2023-01-20T19:46:10.549Z,18.30
2023-01-20T19:48:37.283Z,20.80
2023-01-20T19:51:04.317Z,22.90
2023-01-20T19:53:30.956Z,20.10
2023-01-20T19:56:01.868Z,22.25
2023-01-20T19:58:28.225Z,21.08
2023-01-20T20:00:54.570Z,20.50
2023-01-20T20:03:21.041Z,20.73
2023-01-20T20:05:47.437Z,22.00
2023-01-20T20:08:13.762Z,18.30
2023-01-20T20:10:43.122Z,19.35
2023-01-20T20:13:09.541Z,17.48
2023-01-20T20:15:35.960Z,17.42
2023-01-20T20:18:02.348Z,14.57
2023-01-20T20:20:28.739Z,17.63
2023-01-20T20:22:55.113Z,15.80
2023-01-20T20:25:21.470Z,13.05
2023-01-20T20:27:47.819Z,15.40
2023-01-20T20:30:14.523Z,15.90
2023-01-20T20:32:41.012Z,15.57
2023-01-20T20:35:07.473Z,17.02
2023-01-20T20:37:33.893Z,15.73
2023-01-20T20:40:00.298Z,14.43
2023-01-20T20:42:27.211Z,13.60
2023-01-20T20:44:53.588Z,14.45
2023-01-20T20:47:20.224Z,13.98
2023-01-20T20:49:46.601Z,14.90
2023-01-20T20:52:12.978Z,15.90
2023-01-20T20:54:39.334Z,14.38
2023-01-20T20:57:07.458Z,15.93
2023-01-20T20:59:33.821Z,15.00
2023-01-20T21:02:00.288Z,17.02
2023-01-20T21:04:26.976Z,16.92
2023-01-20T21:06:53.374Z,15.18
2023-01-20T21:09:19.751Z,15.25
2023-01-20T21:11:46.122Z,20.77
2023-01-20T21:14:12.662Z,15.93
2023-01-20T21:16:39.835Z,15.02
2023-01-20T21:19:06.305Z,16.15
2023-01-20T21:21:32.679Z,17.02
2023-01-20T21:23:59.540Z,15.45
2023-01-20T21:26:29.963Z,15.25
2023-01-20T21:28:57.055Z,15.20
2023-01-20T21:31:26.517Z,15.10
2023-01-20T21:33:54.875Z,17.60
2023-01-20T21:36:21.631Z,18.02
2023-01-20T21:38:47.982Z,17.02
2023-01-20T21:41:15.050Z,17.58
2023-01-20T21:44:01.585Z,18.83
2023-01-20T21:46:30.404Z,18.95
2023-01-20T21:49:15.065Z,22.50
2023-01-20T21:51:59.744Z,19.88
2023-01-20T21:54:33.742Z,24.23
2023-01-20T21:57:00.766Z,21.30
2023-01-20T21:59:27.368Z,22.27
2023-01-20T22:01:54.013Z,27.77
2023-01-20T22:04:20.434Z,26.73
2023-01-20T22:06:46.795Z,27.17
2023-01-20T22:09:13.263Z,27.77
2023-01-20T22:11:39.649Z,29.17
2023-01-20T22:14:06.064Z,28.10
2023-01-20T22:16:32.443Z,34.80
2023-01-20T22:18:59.110Z,29.25
2023-01-20T22:21:25.692Z,34.38
2023-01-20T22:23:52.199Z,28.65
2023-01-20T22:26:18.671Z,30.42
2023-01-20T22:28:45.288Z,29.23
2023-01-20T22:31:13.740Z,28.30
2023-01-20T22:33:40.367Z,31.25
2023-01-20T22:36:06.967Z,29.55
2023-01-20T22:38:34.044Z,34.30
2023-01-20T22:41:04.944Z,28.42
2023-01-20T22:43:31.477Z,28.83
2023-01-20T22:45:59.648Z,29.10
2023-01-20T22:48:26.138Z,31.30
2023-01-20T22:50:54.556Z,26.70
2023-01-20T22:53:21.070Z,32.60
2023-01-20T22:56:00.278Z,29.92
2023-01-20T22:58:27.081Z,32.38
2023-01-20T23:00:53.586Z,28.30
2023-01-20T23:03:20.037Z,30.52
2023-01-20T23:05:54.080Z,26.85
2023-01-20T23:08:21.071Z,26.48
2023-01-20T23:10:47.508Z,26.60
2023-01-20T23:13:17.281Z,26.67
2023-01-20T23:15:44.328Z,30.67
2023-01-20T23:18:11.199Z,30.55
2023-01-20T23:20:37.862Z,30.98
2023-01-20T23:23:05.022Z,28.73
2023-01-20T23:25:31.339Z,33.53
2023-01-20T23:27:57.806Z,28.42
2023-01-20T23:30:24.236Z,32.35
2023-01-20T23:32:50.573Z,29.08
2023-01-20T23:35:17.109Z,36.25
2023-01-20T23:37:43.439Z,27.58
2023-01-20T23:40:10.447Z,32.60
2023-01-20T23:42:36.851Z,32.22
2023-01-20T23:45:03.309Z,31.88
2023-01-20T23:47:29.686Z,32.55
2023-01-20T23:49:56.076Z,33.08
2023-01-20T23:52:24.761Z,31.02
2023-01-20T23:54:51.433Z,29.77
2023-01-20T23:57:18.312Z,29.42
2023-01-20T23:59:45.120Z,33.05
